createdAt,value
2023-02-11T00:01:25.063Z,17.88
2023-02-11T00:03:52.787Z,16.73
2023-02-11T00:06:20.052Z,18.00
2023-02-11T00:08:47.321Z,16.98
2023-02-11T00:11:16.959Z,17.63
2023-02-11T00:13:45.033Z,16.90
2023-02-11T00:16:14.802Z,16.10
2023-02-11T00:18:41.873Z,16.65
2023-02-11T00:21:12.003Z,17.35
2023-02-11T00:23:39.274Z,17.48
2023-02-11T00:26:20.808Z,16.75
2023-02-11T00:28:49.193Z,16.83
2023-02-11T00:31:17.874Z,17.92
2023-02-11T00:33:45.757Z,16.85
2023-02-11T00:36:16.736Z,17.67
2023-02-11T00:38:46.171Z,17.75
2023-02-11T00:41:14.493Z,17.52
2023-02-11T00:43:41.874Z,17.80
2023-02-11T00:46:09.884Z,15.73
2023-02-11T00:48:36.969Z,17.35
2023-02-11T00:51:04.614Z,17.33
2023-02-11T00:53:32.778Z,17.02
2023-02-11T00:56:01.219Z,17.17
2023-02-11T00:58:28.975Z,16.95
2023-02-11T01:00:56.641Z,17.90
2023-02-11T01:03:24.021Z,17.35
2023-02-11T01:05:51.745Z,16.30
2023-02-11T01:08:19.142Z,17.08
2023-02-11T01:10:46.238Z,16.50
2023-02-11T01:13:13.415Z,16.63
2023-02-11T01:15:40.476Z,17.15
2023-02-11T01:18:07.605Z,16.95
2023-02-11T01:20:34.767Z,16.48
2023-02-11T01:23:01.863Z,17.40
2023-02-11T01:25:28.969Z,17.27
2023-02-11T01:27:56.001Z,16.50
2023-02-11T01:30:23.327Z,17.00
2023-02-11T01:32:50.386Z,16.30
2023-02-11T01:35:17.549Z,17.33
2023-02-11T01:37:44.733Z,16.33
2023-02-11T01:40:15.187Z,16.77
2023-02-11T01:42:42.723Z,16.67
2023-02-11T01:45:47.264Z,17.55
2023-02-11T01:48:22.553Z,16.58
2023-02-11T01:50:53.986Z,16.83
2023-02-11T01:53:40.363Z,17.98
2023-02-11T01:56:26.820Z,16.33
2023-02-11T01:58:59.933Z,17.70
2023-02-11T02:01:28.829Z,16.80
2023-02-11T02:04:01.190Z,15.90
2023-02-11T02:06:45.925Z,17.02
2023-02-11T02:09:22.897Z,17.25
2023-02-11T02:11:50.714Z,17.65
2023-02-11T02:14:18.038Z,16.70
2023-02-11T02:16:45.468Z,16.55
2023-02-11T02:19:27.579Z,16.58
2023-02-11T02:22:10.723Z,17.05
2023-02-11T02:25:08.788Z,17.02
2023-02-11T02:27:55.576Z,15.43
2023-02-11T02:30:57.579Z,15.75
2023-02-11T02:34:09.173Z,15.50
2023-02-11T02:36:53.186Z,15.00
2023-02-11T02:39:31.820Z,15.90
2023-02-11T02:41:59.243Z,15.82
2023-02-11T02:44:26.656Z,16.88
2023-02-11T02:46:53.801Z,15.77
2023-02-11T02:49:20.859Z,16.65
2023-02-11T02:51:50.651Z,17.17
2023-02-11T02:54:47.289Z,16.67
2023-02-11T02:57:43.372Z,16.88
2023-02-11T03:00:35.061Z,15.63
2023-02-11T03:03:14.259Z,16.55
2023-02-11T03:05:55.868Z,16.05
2023-02-11T03:09:15.192Z,17.23
2023-02-11T03:11:42.439Z,17.00
2023-02-11T03:14:14.823Z,17.73
2023-02-11T03:16:44.819Z,17.23
2023-02-11T03:19:40.245Z,16.60
2023-02-11T03:22:16.650Z,17.50
2023-02-11T03:24:45.066Z,17.23
2023-02-11T03:27:15.048Z,17.88
2023-02-11T03:29:51.816Z,17.67
2023-02-11T03:32:29.225Z,17.20
2023-02-11T03:35:02.218Z,18.63
2023-02-11T03:37:32.775Z,18.10
2023-02-11T03:40:13.585Z,17.75
2023-02-11T03:42:51.860Z,18.55
2023-02-11T03:45:22.353Z,18.05
2023-02-11T03:48:00.664Z,18.88
2023-02-11T03:50:31.082Z,19.08
2023-02-11T03:53:00.996Z,18.52
2023-02-11T03:55:29.852Z,19.10
2023-02-11T03:57:57.117Z,19.08
2023-02-11T04:00:31.798Z,19.40
2023-02-11T04:02:58.914Z,19.65
2023-02-11T04:05:25.923Z,18.50
2023-02-11T04:07:52.907Z,18.90
2023-02-11T04:10:20.072Z,18.75
2023-02-11T04:12:47.242Z,20.10
2023-02-11T04:15:14.276Z,19.45
2023-02-11T04:17:41.366Z,18.83
2023-02-11T04:20:09.177Z,19.70
2023-02-11T04:22:37.246Z,18.05
2023-02-11T04:25:06.181Z,19.55
2023-02-11T04:27:33.412Z,19.05
2023-02-11T04:30:00.478Z,19.00
2023-02-11T04:32:27.520Z,20.77
2023-02-11T04:34:55.529Z,20.13
2023-02-11T04:37:22.537Z,20.25
2023-02-11T04:39:49.636Z,20.02
2023-02-11T04:42:16.646Z,19.55
2023-02-11T04:44:43.688Z,20.00
2023-02-11T04:47:12.783Z,19.92
2023-02-11T04:49:39.812Z,20.52
2023-02-11T04:52:07.046Z,20.27
2023-02-11T04:54:35.183Z,20.50
2023-02-11T04:57:02.327Z,20.02
2023-02-11T04:59:29.513Z,21.08
2023-02-11T05:01:57.028Z,21.00
2023-02-11T05:04:24.154Z,20.73
2023-02-11T05:06:51.345Z,20.95
2023-02-11T05:09:18.602Z,20.75
2023-02-11T05:11:45.622Z,20.60
2023-02-11T05:14:12.688Z,19.13
2023-02-11T05:16:39.817Z,21.02
2023-02-11T05:19:07.178Z,20.77
2023-02-11T05:21:34.387Z,20.23
2023-02-11T05:24:01.602Z,19.38
2023-02-11T05:26:28.706Z,21.00
2023-02-11T05:28:56.124Z,22.02
2023-02-11T05:31:23.174Z,21.90
2023-02-11T05:33:50.205Z,22.73
2023-02-11T05:36:17.380Z,23.17
2023-02-11T05:38:44.393Z,22.20
2023-02-11T05:41:12.139Z,22.73
2023-02-11T05:43:39.904Z,21.05
2023-02-11T05:46:07.038Z,22.75
2023-02-11T05:48:34.235Z,23.10
2023-02-11T05:51:01.311Z,21.80
2023-02-11T05:53:28.420Z,21.80
2023-02-11T05:55:55.548Z,21.05
2023-02-11T05:58:22.607Z,22.45
2023-02-11T06:00:49.693Z,24.00
2023-02-11T06:03:16.846Z,22.70
2023-02-11T06:05:44.997Z,21.95
2023-02-11T06:08:12.607Z,21.80
2023-02-11T06:10:42.574Z,21.50
2023-02-11T06:13:09.632Z,21.98
2023-02-11T06:15:36.929Z,22.05
2023-02-11T06:18:04.201Z,22.27
2023-02-11T06:20:31.309Z,22.02
2023-02-11T06:22:58.381Z,22.95
2023-02-11T06:25:25.423Z,22.33
2023-02-11T06:27:52.493Z,20.70
2023-02-11T06:30:19.583Z,24.23
2023-02-11T06:32:47.395Z,22.90
2023-02-11T06:35:15.174Z,22.92
2023-02-11T06:37:43.028Z,22.52
2023-02-11T06:40:11.725Z,21.95
2023-02-11T06:42:42.091Z,22.70
2023-02-11T06:45:11.069Z,21.20
2023-02-11T06:47:38.445Z,22.08
2023-02-11T06:50:06.692Z,22.45
2023-02-11T06:52:34.175Z,22.30
2023-02-11T06:55:01.411Z,23.70
2023-02-11T06:57:28.526Z,22.67
2023-02-11T06:59:55.915Z,22.50
2023-02-11T07:02:23.032Z,23.25
2023-02-11T07:04:50.213Z,24.98
2023-02-11T07:07:17.283Z,25.23
2023-02-11T07:09:44.422Z,24.13
2023-02-11T07:12:11.496Z,25.58
2023-02-11T07:14:38.690Z,24.25
2023-02-11T07:17:05.738Z,25.13
2023-02-11T07:19:32.905Z,26.20
2023-02-11T07:22:00.117Z,25.85
2023-02-11T07:24:27.145Z,26.63
2023-02-11T07:26:54.654Z,29.15
2023-02-11T07:29:21.703Z,26.20
2023-02-11T07:31:49.141Z,27.63
2023-02-11T07:34:16.224Z,36.28
2023-02-11T07:36:45.242Z,28.95
2023-02-11T07:39:12.659Z,26.95
2023-02-11T07:41:39.772Z,35.65
2023-02-11T07:44:07.001Z,31.90
2023-02-11T07:46:35.900Z,32.50
2023-02-11T07:49:03.812Z,33.28
2023-02-11T07:51:32.074Z,38.97
2023-02-11T07:54:00.053Z,29.88
2023-02-11T07:56:28.921Z,32.67
2023-02-11T07:58:59.793Z,31.88
2023-02-11T08:01:28.797Z,29.25
2023-02-11T08:03:57.820Z,27.00
2023-02-11T08:06:28.148Z,33.53
2023-02-11T08:08:55.274Z,29.17
2023-02-11T08:11:24.875Z,25.73
2023-02-11T08:13:52.658Z,29.35
2023-02-11T08:16:29.827Z,25.00
2023-02-11T08:19:00.141Z,24.63
2023-02-11T08:21:28.130Z,24.13
2023-02-11T08:23:55.961Z,24.02
2023-02-11T08:26:26.242Z,24.00
2023-02-11T08:28:56.632Z,23.55
2023-02-11T08:31:26.407Z,24.17
2023-02-11T08:33:55.037Z,23.75
2023-02-11T08:36:25.312Z,24.75
2023-02-11T08:38:57.151Z,24.10
2023-02-11T08:41:30.484Z,23.52
2023-02-11T08:43:58.424Z,24.35
2023-02-11T08:46:25.880Z,24.77
2023-02-11T08:48:53.416Z,24.45
2023-02-11T08:51:28.504Z,24.48
2023-02-11T08:53:56.412Z,24.45
2023-02-11T08:56:24.195Z,25.30
2023-02-11T08:58:51.946Z,25.80
2023-02-11T09:01:27.940Z,25.08
2023-02-11T09:03:55.145Z,25.63
2023-02-11T09:06:23.281Z,24.83
2023-02-11T09:08:53.670Z,23.77
2023-02-11T09:11:25.077Z,24.17
2023-02-11T09:13:54.387Z,24.23
2023-02-11T09:16:25.543Z,23.90
2023-02-11T09:18:52.736Z,26.48
2023-02-11T09:21:20.409Z,26.70
2023-02-11T09:23:48.417Z,25.60
2023-02-11T09:26:18.962Z,25.83
2023-02-11T09:28:47.159Z,26.33
2023-02-11T09:31:17.758Z,25.10
2023-02-11T09:33:48.402Z,24.52
2023-02-11T09:36:17.997Z,27.33
2023-02-11T09:38:45.714Z,25.77
2023-02-11T09:41:34.434Z,27.92
2023-02-11T09:44:06.339Z,27.35
2023-02-11T09:46:37.855Z,28.13
2023-02-11T09:49:06.152Z,28.73
2023-02-11T09:51:44.433Z,28.02
2023-02-11T09:54:34.313Z,27.95
2023-02-11T09:57:01.443Z,26.02
2023-02-11T09:59:28.529Z,26.17
2023-02-11T10:02:07.511Z,27.33
2023-02-11T10:05:33.285Z,26.42
2023-02-11T10:10:44.645Z,26.15
2023-02-11T10:13:59.830Z,28.75
2023-02-11T10:16:53.015Z,26.80
2023-02-11T10:19:37.970Z,25.83
2023-02-11T10:22:20.866Z,25.38
2023-02-11T10:24:58.686Z,25.65
2023-02-11T10:27:33.039Z,26.75
2023-02-11T10:30:06.629Z,27.63
2023-02-11T10:32:46.963Z,27.38
2023-02-11T10:35:18.419Z,27.13
2023-02-11T10:37:46.130Z,26.95
2023-02-11T10:40:19.526Z,27.30
2023-02-11T10:42:53.553Z,26.95
2023-02-11T10:45:36.342Z,27.08
2023-02-11T10:48:39.312Z,25.67
2023-02-11T10:51:09.124Z,25.70
2023-02-11T10:53:37.507Z,26.75
2023-02-11T10:56:06.420Z,26.55
2023-02-11T10:58:55.767Z,28.02
2023-02-11T11:01:24.938Z,28.05
2023-02-11T11:03:53.192Z,28.58
2023-02-11T11:06:33.751Z,28.67
2023-02-11T11:09:01.397Z,27.80
2023-02-11T11:11:28.629Z,26.75
2023-02-11T11:13:58.387Z,27.23
2023-02-11T11:16:36.575Z,26.58
2023-02-11T11:19:09.581Z,26.52
2023-02-11T11:21:48.336Z,26.40
2023-02-11T11:24:38.419Z,26.40
2023-02-11T11:27:06.388Z,28.83
2023-02-11T11:29:38.724Z,27.45
2023-02-11T11:32:26.755Z,27.92
2023-02-11T11:34:56.463Z,27.55
2023-02-11T11:37:27.655Z,26.00
2023-02-11T11:40:11.379Z,28.40
2023-02-11T11:42:40.089Z,28.33
2023-02-11T11:45:16.109Z,27.92
2023-02-11T11:47:58.048Z,27.38
2023-02-11T11:50:52.559Z,26.55
2023-02-11T11:53:38.582Z,27.08
2023-02-11T11:56:19.620Z,26.50
2023-02-11T11:58:46.964Z,26.63
2023-02-11T12:01:22.902Z,27.35
2023-02-11T12:04:14.535Z,28.08
2023-02-11T12:06:53.574Z,27.98
2023-02-11T12:09:29.547Z,27.77
2023-02-11T12:12:19.277Z,28.23
2023-02-11T12:15:13.987Z,27.40
2023-02-11T12:18:08.521Z,25.60
2023-02-11T12:20:57.631Z,24.60
2023-02-11T12:23:30.523Z,26.73
2023-02-11T12:26:18.113Z,25.98
2023-02-11T12:28:45.137Z,24.92
2023-02-11T12:31:37.344Z,24.95
2023-02-11T12:34:26.011Z,25.98
2023-02-11T12:36:57.640Z,23.55
2023-02-11T12:39:57.985Z,24.35
2023-02-11T12:43:02.619Z,23.20
2023-02-11T12:45:58.060Z,24.90
2023-02-11T12:48:56.477Z,25.17
2023-02-11T12:51:51.061Z,25.00
2023-02-11T12:54:20.850Z,24.65
2023-02-11T12:57:12.032Z,24.73
2023-02-11T12:59:40.009Z,24.13
2023-02-11T13:02:29.850Z,25.35
2023-02-11T13:05:22.307Z,24.33
2023-02-11T13:07:53.292Z,25.52
2023-02-11T13:10:28.386Z,25.30
2023-02-11T13:13:15.625Z,26.10
2023-02-11T13:15:49.741Z,28.20
2023-02-11T13:18:37.649Z,28.17
2023-02-11T13:21:16.560Z,24.35
2023-02-11T13:23:52.392Z,25.63
2023-02-11T13:26:48.907Z,26.70
2023-02-11T13:29:40.202Z,26.48
2023-02-11T13:32:12.935Z,27.70
2023-02-11T13:34:43.082Z,25.77
2023-02-11T13:37:34.066Z,26.83
2023-02-11T13:40:05.688Z,32.83
2023-02-11T13:42:45.556Z,28.75
2023-02-11T13:45:30.682Z,27.90
2023-02-11T13:48:04.096Z,26.60
2023-02-11T13:50:37.496Z,25.67
2023-02-11T13:53:06.546Z,27.08
2023-02-11T13:55:35.005Z,25.48
2023-02-11T13:58:07.767Z,28.55
2023-02-11T14:00:34.902Z,25.20
2023-02-11T14:03:29.787Z,25.67
2023-02-11T14:09:09.714Z,24.83
2023-02-11T14:11:56.396Z,25.60
2023-02-11T14:14:28.996Z,27.63
2023-02-11T14:17:01.853Z,28.35
2023-02-11T14:19:44.040Z,28.13
2023-02-11T14:22:18.923Z,28.45
2023-02-11T14:24:54.075Z,29.88
2023-02-11T14:27:33.350Z,28.33
2023-02-11T14:30:28.749Z,27.17
2023-02-11T14:33:07.699Z,27.60
2023-02-11T14:35:56.042Z,27.42
2023-02-11T14:38:23.032Z,29.02
2023-02-11T14:41:06.711Z,28.27
2023-02-11T14:43:42.178Z,29.10
2023-02-11T14:46:09.827Z,28.67
2023-02-11T14:48:39.335Z,28.50
2023-02-11T14:51:31.462Z,26.98
2023-02-11T14:54:07.910Z,28.33
2023-02-11T14:56:36.379Z,28.10
2023-02-11T14:59:03.532Z,27.00
2023-02-11T15:01:35.828Z,25.50
2023-02-11T15:04:05.588Z,28.27
2023-02-11T15:06:34.136Z,28.00
2023-02-11T15:09:04.218Z,26.75
2023-02-11T15:11:40.299Z,28.40
2023-02-11T15:14:11.384Z,28.48
2023-02-11T15:16:44.900Z,28.17
2023-02-11T15:19:39.811Z,28.20
2023-02-11T15:24:46.842Z,25.33
2023-02-11T15:27:16.312Z,27.38
2023-02-11T15:29:51.829Z,28.08
2023-02-11T15:32:24.575Z,28.23
2023-02-11T15:34:54.471Z,29.13
2023-02-11T15:37:30.525Z,30.30
2023-02-11T15:40:15.517Z,28.23
2023-02-11T15:43:03.763Z,30.13
2023-02-11T15:45:35.065Z,28.50
2023-02-11T15:48:08.159Z,30.13
2023-02-11T15:50:37.436Z,29.23
2023-02-11T15:53:30.256Z,28.70
2023-02-11T15:56:08.376Z,28.35
2023-02-11T15:58:40.454Z,29.27
2023-02-11T16:01:08.992Z,28.77
2023-02-11T16:03:36.333Z,31.38
2023-02-11T16:06:23.962Z,30.25
2023-02-11T16:09:22.488Z,28.70
2023-02-11T16:11:49.523Z,29.95
2023-02-11T16:14:24.289Z,29.17
2023-02-11T16:16:54.007Z,28.73
2023-02-11T16:19:25.487Z,31.45
2023-02-11T16:21:55.165Z,29.45
2023-02-11T16:24:34.474Z,30.23
2023-02-11T16:27:18.482Z,28.90
2023-02-11T16:29:49.070Z,32.33
2023-02-11T16:32:17.542Z,32.53
2023-02-11T16:34:44.648Z,31.55
2023-02-11T16:37:11.744Z,31.45
2023-02-11T16:39:38.833Z,34.33
2023-02-11T16:42:07.713Z,31.20
2023-02-11T16:44:35.642Z,29.73
2023-02-11T16:47:04.365Z,38.10
2023-02-11T16:49:41.286Z,35.85
2023-02-11T16:52:15.531Z,36.55
2023-02-11T16:57:18.639Z,33.65
2023-02-11T16:59:46.533Z,34.38
2023-02-11T17:02:25.642Z,31.88
2023-02-11T17:04:54.296Z,31.08
2023-02-11T17:07:21.636Z,34.75
2023-02-11T17:09:48.676Z,33.15
2023-02-11T17:12:15.722Z,33.42
2023-02-11T17:14:42.958Z,30.45
2023-02-11T17:17:10.979Z,34.47
2023-02-11T17:19:39.156Z,33.67
2023-02-11T17:22:06.750Z,32.55
2023-02-11T17:24:33.974Z,32.75
2023-02-11T17:27:01.140Z,33.25
2023-02-11T17:29:28.309Z,32.17
2023-02-11T17:31:55.506Z,35.60
2023-02-11T17:34:23.949Z,36.08
2023-02-11T17:36:51.969Z,34.22
2023-02-11T17:39:21.234Z,42.80
2023-02-11T17:41:49.695Z,34.33
2023-02-11T17:44:16.924Z,38.67
2023-02-11T17:46:44.406Z,32.05
2023-02-11T17:49:15.940Z,39.53
2023-02-11T17:51:43.576Z,50.25
2023-02-11T17:54:17.017Z,47.25
2023-02-11T17:56:45.640Z,35.42
2023-02-11T17:59:13.574Z,34.53
2023-02-11T18:01:42.410Z,30.38
2023-02-11T18:04:13.263Z,37.70
2023-02-11T18:06:40.603Z,34.95
2023-02-11T18:09:07.708Z,32.20
2023-02-11T18:11:37.955Z,38.50
2023-02-11T18:14:07.952Z,33.05
2023-02-11T18:16:36.832Z,33.35
2023-02-11T18:19:04.233Z,38.15
2023-02-11T18:21:31.333Z,28.73
2023-02-11T18:24:01.150Z,30.38
2023-02-11T18:26:31.573Z,29.58
2023-02-11T18:29:00.275Z,29.38
2023-02-11T18:31:29.723Z,28.33
2023-02-11T18:33:56.845Z,30.08
2023-02-11T18:36:28.651Z,29.42
2023-02-11T18:38:58.187Z,29.05
2023-02-11T18:41:25.217Z,29.95
2023-02-11T18:43:53.489Z,31.90
2023-02-11T18:46:20.629Z,31.33
2023-02-11T18:48:49.421Z,30.20
2023-02-11T18:51:21.197Z,30.27
2023-02-11T18:53:49.335Z,31.70
2023-02-11T18:56:19.287Z,33.00
2023-02-11T18:58:46.710Z,33.63
2023-02-11T19:01:19.690Z,34.90
2023-02-11T19:03:47.345Z,34.20
2023-02-11T19:06:34.839Z,32.20
2023-02-11T19:09:05.490Z,30.63
2023-02-11T19:11:49.169Z,31.77
2023-02-11T19:14:27.197Z,33.13
2023-02-11T19:16:57.107Z,30.70
2023-02-11T19:19:28.094Z,29.80
2023-02-11T19:21:55.894Z,31.90
2023-02-11T19:24:24.052Z,32.58
2023-02-11T19:26:53.447Z,33.50
2023-02-11T19:29:20.551Z,37.03
2023-02-11T19:31:47.787Z,33.35
2023-02-11T19:34:16.935Z,31.55
2023-02-11T19:36:44.646Z,33.53
2023-02-11T19:39:13.068Z,31.27
2023-02-11T19:41:40.691Z,30.83
2023-02-11T19:44:08.577Z,30.65
2023-02-11T19:46:38.896Z,30.80
2023-02-11T19:49:06.074Z,31.35
2023-02-11T19:51:35.794Z,32.35
2023-02-11T19:54:03.500Z,31.60
2023-02-11T19:56:30.660Z,30.98
2023-02-11T19:58:58.127Z,31.30
2023-02-11T20:01:26.478Z,29.48
2023-02-11T20:03:55.119Z,31.45
2023-02-11T20:06:28.198Z,31.40
2023-02-11T20:09:15.695Z,30.65
2023-02-11T20:11:44.465Z,31.77
2023-02-11T20:14:14.917Z,32.35
2023-02-11T20:16:49.285Z,30.30
2023-02-11T20:19:24.078Z,31.50
2023-02-11T20:21:56.080Z,31.85
2023-02-11T20:24:25.445Z,31.33
2023-02-11T20:26:56.604Z,32.22
2023-02-11T20:29:24.468Z,30.95
2023-02-11T20:31:51.598Z,29.27
2023-02-11T20:34:19.131Z,30.35
2023-02-11T20:36:52.182Z,29.95
2023-02-11T20:39:22.519Z,30.87
2023-02-11T20:41:50.907Z,30.45
2023-02-11T20:44:18.075Z,29.50
2023-02-11T20:46:47.036Z,31.65
2023-02-11T20:49:17.162Z,38.80
2023-02-11T20:51:44.513Z,35.50
2023-02-11T20:54:17.911Z,30.88
2023-02-11T20:56:47.973Z,33.00
2023-02-11T20:59:16.906Z,30.30
2023-02-11T21:01:46.675Z,30.38
2023-02-11T21:04:20.232Z,31.83
2023-02-11T21:06:49.565Z,30.35
2023-02-11T21:09:20.439Z,30.05
2023-02-11T21:11:48.518Z,29.33
2023-02-11T21:14:15.856Z,28.23
2023-02-11T21:16:45.238Z,29.85
2023-02-11T21:19:12.501Z,31.35
2023-02-11T21:21:39.943Z,31.80
2023-02-11T21:24:08.029Z,31.17
2023-02-11T21:26:36.127Z,35.22
2023-02-11T21:29:04.482Z,30.08
2023-02-11T21:31:33.643Z,29.35
2023-02-11T21:34:01.424Z,29.77
2023-02-11T21:36:30.596Z,32.92
2023-02-11T21:38:57.894Z,33.00
2023-02-11T21:41:25.174Z,34.20
2023-02-11T21:43:52.625Z,33.30
2023-02-11T21:46:20.376Z,37.08
2023-02-11T21:48:47.987Z,34.15
2023-02-11T21:51:21.584Z,33.63
2023-02-11T21:54:03.697Z,32.70
2023-02-11T21:56:34.308Z,34.20
2023-02-11T21:59:01.418Z,33.33
2023-02-11T22:01:31.720Z,31.30
2023-02-11T22:03:59.240Z,48.42
2023-02-11T22:06:31.190Z,36.67
2023-02-11T22:08:59.020Z,32.67
2023-02-11T22:11:26.154Z,36.63
2023-02-11T22:13:55.469Z,34.08
2023-02-11T22:16:23.483Z,35.55
2023-02-11T22:18:51.637Z,34.80
2023-02-11T22:21:21.799Z,33.47
2023-02-11T22:23:50.324Z,34.63
2023-02-11T22:26:20.767Z,35.60
2023-02-11T22:28:48.758Z,34.08
2023-02-11T22:31:21.905Z,34.10
2023-02-11T22:33:49.386Z,34.17
2023-02-11T22:36:20.001Z,33.78
2023-02-11T22:38:47.218Z,32.30
2023-02-11T22:41:14.756Z,33.60
2023-02-11T22:43:43.439Z,33.15
2023-02-11T22:46:15.016Z,35.42
2023-02-11T22:48:42.466Z,34.45
2023-02-11T22:51:19.497Z,35.90
2023-02-11T22:53:58.453Z,33.92
2023-02-11T22:56:26.437Z,37.58
2023-02-11T22:58:57.225Z,34.58
2023-02-11T23:01:24.415Z,37.33
2023-02-11T23:03:51.626Z,36.05
2023-02-11T23:06:18.967Z,35.60
2023-02-11T23:08:46.091Z,36.20
2023-02-11T23:11:19.248Z,37.45
2023-02-11T23:13:47.696Z,34.53
2023-02-11T23:16:18.003Z,35.10
2023-02-11T23:18:46.107Z,32.33
2023-02-11T23:21:19.451Z,34.25
2023-02-11T23:23:46.510Z,34.37
2023-02-11T23:26:16.219Z,36.08
2023-02-11T23:28:46.164Z,34.42
2023-02-11T23:31:31.434Z,34.85
2023-02-11T23:33:58.548Z,34.47
2023-02-11T23:36:25.829Z,36.35
